PWSweather.com
Personal Weather Stations
Station Observations
KFLPOINC2
PoincianaKissimmee, Poinciana, FL 34758

PoincianaKissimmeePoinciana, FL 34758

Lat: 28.161417, Lon: -81.477557

Elevation: 62

Station Type: Ambient Weather WS 2080

High Low Average
Temperature 72.3°F22.4°F 46.4°F8.0°F 58.5°F14.7°F
Dew Point 71.2°F21.8°F 45.6°F7.6°F 55.5°F13.1°F
Winds 14.5 mph W23.3 mph W Calm Calm 3.1 mph 5.0 mph
Wind Gusts 20.6 mph33.2 mph -- 6.9 mph11.1 mph
Humidity 97% 64% 90%
Pressure 29.92 in1013.20 in 29.92 in1013.20 in -
Precipitation 6.85 in174.00 in - -
Hour Temp Dew Point Humidity Winds Wind Gusts Pressure Precip Precip Rate Daily Precip Total
12:00 AM 71.1°F21.7°C 69.9°F21.1°C 96% 3.1 mph S5.0 kmh S 12.1 mph19.5 kmh 29.92 in1013.2 mb 0.06 in1.5 mm 0.00 in/hr0.0 mm/hr 0.06 in1.5 mm
12:05 AM 70.9°F21.6°C 69.4°F20.8°C 95% 5.4 mph SSE8.7 kmh SSE 8.3 mph13.4 kmh 29.92 in1013.2 mb 0.06 in1.5 mm 0.00 in/hr0.0 mm/hr 0.06 in1.5 mm
12:10 AM 71.2°F21.8°C 69.8°F21.0°C 95% 3.8 mph SSE6.1 kmh SSE 8.3 mph13.4 kmh 29.92 in1013.2 mb 0.06 in1.5 mm 0.00 in/hr0.0 mm/hr 0.01 in0.3 mm
12:15 AM 71.1°F21.7°C 69.3°F20.7°C 94% 2.2 mph SSE3.5 kmh SSE 8.3 mph13.4 kmh 29.92 in1013.2 mb 0.05 in1.3 mm 0.00 in/hr0.0 mm/hr 0.01 in0.3 mm
12:20 AM 70.9°F21.6°C 69.1°F20.6°C 94% 4.5 mph SSE7.2 kmh SSE 8.3 mph13.4 kmh 29.92 in1013.2 mb 0.04 in1.0 mm 0.00 in/hr0.0 mm/hr 0.01 in0.3 mm
12:25 AM 70.9°F21.6°C 69.1°F20.6°C 94% 5.4 mph S8.7 kmh S 8.3 mph13.4 kmh 29.92 in1013.2 mb 0.02 in0.5 mm 0.00 in/hr0.0 mm/hr 0.01 in0.3 mm
12:30 AM 71.1°F21.7°C 69.3°F20.7°C 94% 3.8 mph S6.1 kmh S 8.3 mph13.4 kmh 29.92 in1013.2 mb 0.02 in0.5 mm 0.00 in/hr0.0 mm/hr 0.01 in0.3 mm
12:35 AM 71.1°F21.7°C 69.3°F20.7°C 94% 3.8 mph S6.1 kmh S 8.3 mph13.4 kmh 29.92 in1013.2 mb 0.05 in1.3 mm 0.36 in/hr9.1 mm/hr 0.04 in1.0 mm
12:40 AM 71.1°F21.7°C 69.3°F20.7°C 94% 5.4 mph S8.7 kmh S 9.2 mph14.8 kmh 29.92 in1013.2 mb 0.05 in1.3 mm 0.00 in/hr0.0 mm/hr 0.04 in1.0 mm
12:45 AM 71.2°F21.8°C 69.1°F20.6°C 93% 3.1 mph SE5.0 kmh SE 9.2 mph14.8 kmh 29.92 in1013.2 mb 0.06 in1.5 mm 0.12 in/hr3.0 mm/hr 0.06 in1.5 mm
12:50 AM 71.1°F21.7°C 69.3°F20.7°C 94% 3.8 mph SE6.1 kmh SE 7.6 mph12.2 kmh 29.92 in1013.2 mb 0.06 in1.5 mm 0.00 in/hr0.0 mm/hr 0.06 in1.5 mm
12:55 AM 71.1°F21.7°C 69.3°F20.7°C 94% 1.6 mph SE2.6 kmh SE 6.0 mph9.7 kmh 29.92 in1013.2 mb 0.07 in1.8 mm 0.12 in/hr3.0 mm/hr 0.07 in1.8 mm
01:00 AM 71.1°F21.7°C 69.3°F20.7°C 94% 4.5 mph SE7.2 kmh SE 6.9 mph11.1 kmh 29.92 in1013.2 mb 0.08 in2.0 mm 0.01 in/hr0.3 mm/hr 0.08 in2.0 mm
01:05 AM 71.1°F21.7°C 69.3°F20.7°C 94% 4.5 mph SE7.2 kmh SE 6.9 mph11.1 kmh 29.92 in1013.2 mb 0.08 in2.0 mm 0.00 in/hr0.0 mm/hr 0.08 in2.0 mm
01:10 AM 71.2°F21.8°C 69.5°F20.8°C 94% 6.9 mph SE11.1 kmh SE 8.3 mph13.4 kmh 29.92 in1013.2 mb 0.08 in2.0 mm 0.00 in/hr0.0 mm/hr 0.09 in2.3 mm
01:15 AM 71.6°F22.0°C 69.8°F21.0°C 94% 4.5 mph SE7.2 kmh SE 9.2 mph14.8 kmh 29.92 in1013.2 mb 0.08 in2.0 mm 0.00 in/hr0.0 mm/hr 0.09 in2.3 mm
01:20 AM 71.6°F22.0°C 69.8°F21.0°C 94% 6.0 mph SE9.7 kmh SE 9.8 mph15.8 kmh 29.92 in1013.2 mb 0.09 in2.3 mm 0.12 in/hr3.0 mm/hr 0.11 in2.8 mm
01:25 AM 71.8°F22.1°C 70.3°F21.3°C 95% 3.8 mph SE6.1 kmh SE 9.8 mph15.8 kmh 29.92 in1013.2 mb 0.09 in2.3 mm 0.00 in/hr0.0 mm/hr 0.11 in2.8 mm
01:30 AM 72.0°F22.2°C 70.5°F21.4°C 95% 4.5 mph SE7.2 kmh SE 9.8 mph15.8 kmh 29.92 in1013.2 mb 0.09 in2.3 mm 0.00 in/hr0.0 mm/hr 0.11 in2.8 mm
01:35 AM 72.0°F22.2°C 70.5°F21.4°C 95% 0.7 mph SSE1.1 kmh SSE 8.3 mph13.4 kmh 29.92 in1013.2 mb 0.07 in1.8 mm 0.00 in/hr0.0 mm/hr 0.11 in2.8 mm
01:40 AM 72.0°F22.2°C 70.5°F21.4°C 95% 4.5 mph S7.2 kmh S 7.6 mph12.2 kmh 29.92 in1013.2 mb 0.07 in1.8 mm 0.00 in/hr0.0 mm/hr 0.11 in2.8 mm
01:45 AM 72.1°F22.3°C 70.7°F21.5°C 95% 4.5 mph S7.2 kmh S 8.3 mph13.4 kmh 29.92 in1013.2 mb 0.05 in1.3 mm 0.00 in/hr0.0 mm/hr 0.11 in2.8 mm
01:50 AM 72.0°F22.2°C 70.5°F21.4°C 95% 6.9 mph S11.1 kmh S 9.2 mph14.8 kmh 29.92 in1013.2 mb 0.06 in1.5 mm 0.12 in/hr3.0 mm/hr 0.12 in3.0 mm
01:55 AM 72.3°F22.4°C 71.2°F21.8°C 96% 6.9 mph SSE11.1 kmh SSE 12.1 mph19.5 kmh 29.92 in1013.2 mb 0.06 in1.5 mm 0.00 in/hr0.0 mm/hr 0.13 in3.3 mm
02:00 AM 72.1°F22.3°C 71.0°F21.7°C 96% 4.5 mph SSE7.2 kmh SSE 12.1 mph19.5 kmh 29.92 in1013.2 mb 0.06 in1.5 mm 0.00 in/hr0.0 mm/hr 0.14 in3.6 mm
02:05 AM 72.1°F22.3°C 70.7°F21.5°C 95% 6.9 mph S11.1 kmh S 12.1 mph19.5 kmh 29.92 in1013.2 mb 0.07 in1.8 mm 0.12 in/hr3.0 mm/hr 0.15 in3.8 mm
02:10 AM 71.8°F22.1°C 70.3°F21.3°C 95% 6.9 mph SSE11.1 kmh SSE 12.1 mph19.5 kmh 29.92 in1013.2 mb 0.06 in1.5 mm 0.00 in/hr0.0 mm/hr 0.15 in3.8 mm
02:15 AM 71.8°F22.1°C 70.3°F21.3°C 95% 9.2 mph SE14.8 kmh SE 13.6 mph21.9 kmh 29.92 in1013.2 mb 0.06 in1.5 mm 0.00 in/hr0.0 mm/hr 0.17 in4.3 mm
02:20 AM 72.0°F22.2°C 70.5°F21.4°C 95% 9.2 mph SE14.8 kmh SE 13.6 mph21.9 kmh 29.92 in1013.2 mb 0.07 in1.8 mm 0.12 in/hr3.0 mm/hr 0.18 in4.6 mm
02:25 AM 72.0°F22.2°C 70.2°F21.2°C 94% 6.0 mph SSE9.7 kmh SSE 12.1 mph19.5 kmh 29.92 in1013.2 mb 0.09 in2.3 mm 0.24 in/hr6.1 mm/hr 0.20 in5.1 mm
02:30 AM 71.8°F22.1°C 70.0°F21.1°C 94% 7.6 mph SSE12.2 kmh SSE 12.1 mph19.5 kmh 29.92 in1013.2 mb 0.11 in2.8 mm 0.24 in/hr6.1 mm/hr 0.21 in5.3 mm
02:35 AM 71.8°F22.1°C 70.0°F21.1°C 94% 3.8 mph S6.1 kmh S 13.0 mph20.9 kmh 29.92 in1013.2 mb 0.12 in3.0 mm 0.12 in/hr3.0 mm/hr 0.22 in5.6 mm
02:40 AM 72.0°F22.2°C 70.2°F21.2°C 94% 3.8 mph S6.1 kmh S 13.0 mph20.9 kmh 29.92 in1013.2 mb 0.13 in3.3 mm 0.12 in/hr3.0 mm/hr 0.24 in6.1 mm
02:45 AM 71.6°F22.0°C 69.8°F21.0°C 94% 6.0 mph S9.7 kmh S 10.7 mph17.2 kmh 29.92 in1013.2 mb 0.13 in3.3 mm 0.00 in/hr0.0 mm/hr 0.24 in6.1 mm
02:50 AM 72.0°F22.2°C 70.2°F21.2°C 94% 2.2 mph S3.5 kmh S 9.2 mph14.8 kmh 29.92 in1013.2 mb 0.13 in3.3 mm 0.00 in/hr0.0 mm/hr 0.25 in6.4 mm
02:55 AM 71.8°F22.1°C 69.7°F20.9°C 93% 2.2 mph S3.5 kmh S 8.3 mph13.4 kmh 29.92 in1013.2 mb 0.12 in3.0 mm 0.00 in/hr0.0 mm/hr 0.25 in6.4 mm
03:00 AM 71.8°F22.1°C 69.7°F20.9°C 93% 3.1 mph S5.0 kmh S 5.4 mph8.7 kmh 29.92 in1013.2 mb 0.12 in3.0 mm 0.00 in/hr0.0 mm/hr 0.26 in6.6 mm
03:05 AM 71.8°F22.1°C 69.7°F20.9°C 93% 3.1 mph S5.0 kmh S 3.8 mph6.1 kmh 29.92 in1013.2 mb 0.11 in2.8 mm 0.00 in/hr0.0 mm/hr 0.26 in6.6 mm
03:10 AM 71.6°F22.0°C 69.5°F20.8°C 93% 5.4 mph S8.7 kmh S 7.6 mph12.2 kmh 29.92 in1013.2 mb 0.12 in3.0 mm 0.12 in/hr3.0 mm/hr 0.27 in6.9 mm
03:15 AM 71.6°F22.0°C 69.5°F20.8°C 93% 4.5 mph SSE7.2 kmh SSE 7.6 mph12.2 kmh 29.92 in1013.2 mb 0.11 in2.8 mm 0.00 in/hr0.0 mm/hr 0.27 in6.9 mm
03:20 AM 71.6°F22.0°C 69.5°F20.8°C 93% 3.8 mph S6.1 kmh S 7.6 mph12.2 kmh 29.92 in1013.2 mb 0.09 in2.3 mm 0.00 in/hr0.0 mm/hr 0.27 in6.9 mm
03:25 AM 71.6°F22.0°C 69.8°F21.0°C 94% 4.5 mph S7.2 kmh S 9.2 mph14.8 kmh 29.92 in1013.2 mb 0.07 in1.8 mm 0.00 in/hr0.0 mm/hr 0.27 in6.9 mm
03:30 AM 71.8°F22.1°C 70.0°F21.1°C 94% 3.8 mph S6.1 kmh S 9.2 mph14.8 kmh 29.92 in1013.2 mb 0.06 in1.5 mm 0.00 in/hr0.0 mm/hr 0.27 in6.9 mm
03:35 AM 71.6°F22.0°C 69.8°F21.0°C 94% 3.1 mph S5.0 kmh S 7.6 mph12.2 kmh 29.92 in1013.2 mb 0.05 in1.3 mm 0.00 in/hr0.0 mm/hr 0.27 in6.9 mm
03:40 AM 71.6°F22.0°C 69.8°F21.0°C 94% 3.1 mph S5.0 kmh S 6.0 mph9.7 kmh 29.92 in1013.2 mb 0.04 in1.0 mm 0.00 in/hr0.0 mm/hr 0.27 in6.9 mm
03:45 AM 71.6°F22.0°C 69.8°F21.0°C 94% 3.1 mph S5.0 kmh S 7.6 mph12.2 kmh 29.92 in1013.2 mb 0.05 in1.3 mm 0.12 in/hr3.0 mm/hr 0.28 in7.1 mm
03:50 AM 71.8°F22.1°C 70.0°F21.1°C 94% 3.1 mph S5.0 kmh S 7.6 mph12.2 kmh 29.92 in1013.2 mb 0.04 in1.0 mm 0.00 in/hr0.0 mm/hr 0.28 in7.1 mm
03:55 AM 72.0°F22.2°C 70.2°F21.2°C 94% 3.1 mph SSE5.0 kmh SSE 7.6 mph12.2 kmh 29.92 in1013.2 mb 0.05 in1.3 mm 0.12 in/hr3.0 mm/hr 0.30 in7.6 mm
04:00 AM 72.0°F22.2°C 70.2°F21.2°C 94% 3.1 mph SE5.0 kmh SE 6.9 mph11.1 kmh 29.92 in1013.2 mb 0.04 in1.0 mm 0.00 in/hr0.0 mm/hr 0.30 in7.6 mm
04:05 AM 72.0°F22.2°C 70.2°F21.2°C 94% 5.4 mph SSE8.7 kmh SSE 6.9 mph11.1 kmh 29.92 in1013.2 mb 0.05 in1.3 mm 0.12 in/hr3.0 mm/hr 0.31 in7.9 mm
04:10 AM 71.8°F22.1°C 70.3°F21.3°C 95% 3.1 mph S5.0 kmh S 9.2 mph14.8 kmh 29.92 in1013.2 mb 0.04 in1.0 mm 0.00 in/hr0.0 mm/hr 0.31 in7.9 mm
04:15 AM 71.8°F22.1°C 70.3°F21.3°C 95% 6.0 mph S9.7 kmh S 9.2 mph14.8 kmh 29.92 in1013.2 mb 0.04 in1.0 mm 0.00 in/hr0.0 mm/hr 0.31 in7.9 mm
04:20 AM 72.0°F22.2°C 70.5°F21.4°C 95% 5.4 mph S8.7 kmh S 7.6 mph12.2 kmh 29.92 in1013.2 mb 0.05 in1.3 mm 0.12 in/hr3.0 mm/hr 0.32 in8.1 mm
04:25 AM 71.8°F22.1°C 70.3°F21.3°C 95% 3.1 mph S5.0 kmh S 7.6 mph12.2 kmh 29.92 in1013.2 mb 0.05 in1.3 mm 0.00 in/hr0.0 mm/hr 0.32 in8.1 mm
04:30 AM 71.8°F22.1°C 70.3°F21.3°C 95% 3.8 mph S6.1 kmh S 9.2 mph14.8 kmh 29.92 in1013.2 mb 0.05 in1.3 mm 0.00 in/hr0.0 mm/hr 0.32 in8.1 mm
04:35 AM 72.1°F22.3°C 70.7°F21.5°C 95% 5.4 mph S8.7 kmh S 9.8 mph15.8 kmh 29.92 in1013.2 mb 0.05 in1.3 mm 0.00 in/hr0.0 mm/hr 0.32 in8.1 mm
04:40 AM 72.1°F22.3°C 70.7°F21.5°C 95% 2.2 mph S3.5 kmh S 9.8 mph15.8 kmh 29.92 in1013.2 mb 0.06 in1.5 mm 0.12 in/hr3.0 mm/hr 0.33 in8.4 mm
04:45 AM 72.1°F22.3°C 70.7°F21.5°C 95% 2.2 mph S3.5 kmh S 9.2 mph14.8 kmh 29.92 in1013.2 mb 0.05 in1.3 mm 0.00 in/hr0.0 mm/hr 0.33 in8.4 mm
04:50 AM 72.0°F22.2°C 70.5°F21.4°C 95% 3.1 mph S5.0 kmh S 6.0 mph9.7 kmh 29.92 in1013.2 mb 0.04 in1.0 mm 0.00 in/hr0.0 mm/hr 0.33 in8.4 mm
04:55 AM 71.8°F22.1°C 70.3°F21.3°C 95% 3.8 mph S6.1 kmh S 6.0 mph9.7 kmh 29.92 in1013.2 mb 0.04 in1.0 mm 0.00 in/hr0.0 mm/hr 0.33 in8.4 mm
05:00 AM 72.0°F22.2°C 70.5°F21.4°C 95% 2.2 mph S3.5 kmh S 6.0 mph9.7 kmh 29.92 in1013.2 mb 0.05 in1.3 mm 0.01 in/hr0.3 mm/hr 0.34 in8.6 mm
05:05 AM 72.0°F22.2°C 70.5°F21.4°C 95% 2.2 mph S3.5 kmh S 5.4 mph8.7 kmh 29.92 in1013.2 mb 0.04 in1.0 mm 0.00 in/hr0.0 mm/hr 0.34 in8.6 mm
05:10 AM 71.8°F22.1°C 70.3°F21.3°C 95% 4.5 mph S7.2 kmh S 5.4 mph8.7 kmh 29.92 in1013.2 mb 0.05 in1.3 mm 0.12 in/hr3.0 mm/hr 0.35 in8.9 mm
05:15 AM 71.8°F22.1°C 70.3°F21.3°C 95% 2.2 mph S3.5 kmh S 5.4 mph8.7 kmh 29.92 in1013.2 mb 0.06 in1.5 mm 0.12 in/hr3.0 mm/hr 0.37 in9.4 mm
05:20 AM 72.0°F22.2°C 70.5°F21.4°C 95% 3.8 mph S6.1 kmh S 5.4 mph8.7 kmh 29.92 in1013.2 mb 0.06 in1.5 mm 0.00 in/hr0.0 mm/hr 0.38 in9.7 mm
05:25 AM 71.8°F22.1°C 70.3°F21.3°C 95% 3.1 mph SSW5.0 kmh SSW 5.4 mph8.7 kmh 29.92 in1013.2 mb 0.06 in1.5 mm 0.00 in/hr0.0 mm/hr 0.38 in9.7 mm
05:33 AM 72.0°F22.2°C 70.5°F21.4°C 95% 6.9 mph SW11.1 kmh SW 9.8 mph15.8 kmh 29.92 in1013.2 mb 0.07 in1.8 mm 0.08 in/hr2.0 mm/hr 0.39 in9.9 mm
05:35 AM 69.4°F20.8°C 68.3°F20.2°C 96% 11.4 mph SW18.3 kmh SW 16.8 mph27.0 kmh 29.92 in1013.2 mb 0.07 in1.8 mm 0.00 in/hr0.0 mm/hr 0.40 in10.2 mm
05:40 AM 68.0°F20.0°C 65.9°F18.8°C 93% 8.3 mph W13.4 kmh W 16.8 mph27.0 kmh 29.92 in1013.2 mb 0.08 in2.0 mm 0.12 in/hr3.0 mm/hr 0.41 in10.4 mm
05:46 AM 66.6°F19.2°C 65.1°F18.4°C 95% 9.2 mph W14.8 kmh W 16.8 mph27.0 kmh 29.92 in1013.2 mb 0.08 in2.0 mm 0.00 in/hr0.0 mm/hr 0.41 in10.4 mm
05:50 AM 65.7°F18.7°C 64.2°F17.9°C 95% 11.4 mph W18.3 kmh W 19.0 mph30.6 kmh 29.92 in1013.2 mb 0.08 in2.0 mm 0.00 in/hr0.0 mm/hr 0.41 in10.4 mm
05:55 AM 64.9°F18.3°C 63.2°F17.3°C 94% 8.3 mph W13.4 kmh W 19.0 mph30.6 kmh 29.92 in1013.2 mb 0.08 in2.0 mm 0.00 in/hr0.0 mm/hr 0.41 in10.4 mm
06:00 AM 64.8°F18.2°C 63.0°F17.2°C 94% 14.5 mph W23.3 kmh W 19.7 mph31.7 kmh 29.92 in1013.2 mb 0.08 in2.0 mm 0.00 in/hr0.0 mm/hr 0.43 in10.9 mm
06:05 AM 64.2°F17.9°C 62.5°F16.9°C 94% 9.2 mph W14.8 kmh W 19.7 mph31.7 kmh 29.92 in1013.2 mb 0.08 in2.0 mm 0.00 in/hr0.0 mm/hr 0.43 in10.9 mm
06:10 AM 64.2°F17.9°C 62.2°F16.8°C 93% 13.0 mph W20.9 kmh W 19.7 mph31.7 kmh 29.92 in1013.2 mb 0.07 in1.8 mm 0.00 in/hr0.0 mm/hr 0.43 in10.9 mm
06:15 AM 63.7°F17.6°C 61.6°F16.4°C 93% 8.3 mph W13.4 kmh W 20.6 mph33.2 kmh 29.92 in1013.2 mb 0.06 in1.5 mm 0.00 in/hr0.0 mm/hr 0.43 in10.9 mm
06:20 AM 63.0°F17.2°C 60.9°F16.1°C 93% 7.6 mph W12.2 kmh W 20.6 mph33.2 kmh 29.92 in1013.2 mb 0.05 in1.3 mm 0.00 in/hr0.0 mm/hr 0.43 in10.9 mm
06:25 AM 62.8°F17.1°C 60.7°F15.9°C 93% 9.8 mph W15.8 kmh W 16.8 mph27.0 kmh 29.92 in1013.2 mb 0.05 in1.3 mm 0.00 in/hr0.0 mm/hr 0.43 in10.9 mm
06:30 AM 62.6°F17.0°C 60.9°F16.1°C 94% 9.2 mph WNW14.8 kmh WNW 16.8 mph27.0 kmh 29.92 in1013.2 mb 0.04 in1.0 mm 0.00 in/hr0.0 mm/hr 0.43 in10.9 mm
06:35 AM 62.1°F16.7°C 60.3°F15.7°C 94% 6.9 mph WNW11.1 kmh WNW 15.2 mph24.5 kmh 29.92 in1013.2 mb 0.02 in0.5 mm 0.00 in/hr0.0 mm/hr 0.43 in10.9 mm
06:40 AM 60.4°F15.8°C 58.7°F14.8°C 94% 6.9 mph WNW11.1 kmh WNW 20.6 mph33.2 kmh 29.92 in1013.2 mb 0.01 in0.3 mm 0.00 in/hr0.0 mm/hr 0.43 in10.9 mm
06:45 AM 59.4°F15.2°C 57.0°F13.9°C 92% 6.9 mph WNW11.1 kmh WNW 20.6 mph33.2 kmh 29.92 in1013.2 mb 0.02 in0.5 mm 0.12 in/hr3.0 mm/hr 0.44 in11.2 mm
06:50 AM 55.9°F13.3°C 54.0°F12.2°C 93% 7.6 mph WNW12.2 kmh WNW 15.9 mph25.6 kmh 29.92 in1013.2 mb 0.02 in0.5 mm 0.00 in/hr0.0 mm/hr 0.44 in11.2 mm
06:55 AM 56.8°F13.8°C 54.6°F12.6°C 92% 6.0 mph W9.7 kmh W 15.9 mph25.6 kmh 29.92 in1013.2 mb 0.02 in0.5 mm 0.00 in/hr0.0 mm/hr 0.44 in11.2 mm
07:00 AM 56.5°F13.6°C 54.2°F12.3°C 92% 5.4 mph W8.7 kmh W 15.2 mph24.5 kmh 29.92 in1013.2 mb 0.01 in0.3 mm 0.00 in/hr0.0 mm/hr 0.44 in11.2 mm
07:05 AM 56.5°F13.6°C 54.2°F12.3°C 92% 5.4 mph W8.7 kmh W 13.6 mph21.9 kmh 29.92 in1013.2 mb 0.01 in0.3 mm 0.00 in/hr0.0 mm/hr 0.44 in11.2 mm
07:10 AM 53.8°F12.1°C 51.8°F11.0°C 93% 13.0 mph WNW20.9 kmh WNW 19.0 mph30.6 kmh 29.92 in1013.2 mb 0.02 in0.5 mm 0.12 in/hr3.0 mm/hr 0.45 in11.4 mm
07:15 AM 55.6°F13.1°C 53.9°F12.2°C 94% 3.1 mph NW5.0 kmh NW 19.0 mph30.6 kmh 29.92 in1013.2 mb 0.02 in0.5 mm 0.00 in/hr0.0 mm/hr 0.45 in11.4 mm
07:20 AM 53.2°F11.8°C 51.6°F10.9°C 94% 3.1 mph NW5.0 kmh NW 19.0 mph30.6 kmh 29.92 in1013.2 mb 0.04 in1.0 mm 0.24 in/hr6.1 mm/hr 0.46 in11.7 mm
07:25 AM 54.5°F12.5°C 52.8°F11.6°C 94% 6.0 mph NW9.7 kmh NW 11.4 mph18.3 kmh 29.92 in1013.2 mb 0.04 in1.0 mm 0.00 in/hr0.0 mm/hr 0.46 in11.7 mm
07:30 AM 54.5°F12.5°C 52.8°F11.6°C 94% 3.1 mph NW5.0 kmh NW 11.4 mph18.3 kmh 29.92 in1013.2 mb 0.05 in1.3 mm 0.12 in/hr3.0 mm/hr 0.47 in11.9 mm
07:35 AM 54.1°F12.3°C 52.7°F11.5°C 95% 3.8 mph NW6.1 kmh NW 9.2 mph14.8 kmh 29.92 in1013.2 mb 0.05 in1.3 mm 0.00 in/hr0.0 mm/hr 0.47 in11.9 mm
07:40 AM 54.5°F12.5°C 52.8°F11.6°C 94% 3.8 mph NW6.1 kmh NW 9.2 mph14.8 kmh 29.92 in1013.2 mb 0.06 in1.5 mm 0.12 in/hr3.0 mm/hr 0.48 in12.2 mm
07:45 AM 54.0°F12.2°C 52.6°F11.4°C 95% 5.4 mph NW8.7 kmh NW 8.3 mph13.4 kmh 29.92 in1013.2 mb 0.05 in1.3 mm 0.00 in/hr0.0 mm/hr 0.48 in12.2 mm
07:50 AM 54.1°F12.3°C 52.7°F11.5°C 95% 3.1 mph NW5.0 kmh NW 6.9 mph11.1 kmh 29.92 in1013.2 mb 0.06 in1.5 mm 0.12 in/hr3.0 mm/hr 0.50 in12.7 mm
07:55 AM 52.3°F11.3°C 51.2°F10.7°C 96% 4.5 mph NW7.2 kmh NW 7.6 mph12.2 kmh 29.92 in1013.2 mb 0.06 in1.5 mm 0.00 in/hr0.0 mm/hr 0.50 in12.7 mm
08:00 AM 52.2°F11.2°C 51.1°F10.6°C 96% 3.1 mph NW5.0 kmh NW 7.6 mph12.2 kmh 29.92 in1013.2 mb 0.06 in1.5 mm 0.00 in/hr0.0 mm/hr 0.50 in12.7 mm
08:05 AM 54.1°F12.3°C 53.0°F11.7°C 96% 3.8 mph NW6.1 kmh NW 8.3 mph13.4 kmh 29.92 in1013.2 mb 0.06 in1.5 mm 0.00 in/hr0.0 mm/hr 0.50 in12.7 mm
08:10 AM 54.1°F12.3°C 53.0°F11.7°C 96% 3.8 mph NW6.1 kmh NW 8.3 mph13.4 kmh 29.92 in1013.2 mb 0.05 in1.3 mm 0.00 in/hr0.0 mm/hr 0.50 in12.7 mm
08:15 AM 54.0°F12.2°C 53.1°F11.7°C 97% 2.2 mph NW3.5 kmh NW 6.9 mph11.1 kmh 29.92 in1013.2 mb 0.05 in1.3 mm 0.00 in/hr0.0 mm/hr 0.50 in12.7 mm
08:20 AM 54.3°F12.4°C 53.5°F11.9°C 97% 3.1 mph NW5.0 kmh NW 9.2 mph14.8 kmh 29.92 in1013.2 mb 0.04 in1.0 mm 0.00 in/hr0.0 mm/hr 0.50 in12.7 mm
08:25 AM 52.5°F11.4°C 51.7°F10.9°C 97% 1.6 mph NNW2.6 kmh NNW 9.2 mph14.8 kmh 29.92 in1013.2 mb 0.04 in1.0 mm 0.00 in/hr0.0 mm/hr 0.50 in12.7 mm
08:30 AM 54.1°F12.3°C 53.3°F11.8°C 97% 1.6 mph NW2.6 kmh NW 7.6 mph12.2 kmh 29.92 in1013.2 mb 0.02 in0.5 mm 0.00 in/hr0.0 mm/hr 0.50 in12.7 mm
08:35 AM 54.5°F12.5°C 53.7°F12.1°C 97% 1.6 mph NW2.6 kmh NW 7.6 mph12.2 kmh 29.92 in1013.2 mb 0.02 in0.5 mm 0.00 in/hr0.0 mm/hr 0.50 in12.7 mm
08:40 AM 54.7°F12.6°C 53.9°F12.2°C 97% 0.7 mph NW1.1 kmh NW 6.0 mph9.7 kmh 29.92 in1013.2 mb 0.01 in0.3 mm 0.00 in/hr0.0 mm/hr 0.50 in12.7 mm
08:45 AM 55.2°F12.9°C 54.4°F12.4°C 97% 0.7 mph NW1.1 kmh NW 7.6 mph12.2 kmh 29.92 in1013.2 mb 0.01 in0.3 mm 0.00 in/hr0.0 mm/hr 0.50 in12.7 mm
08:50 AM 55.0°F12.8°C 54.2°F12.3°C 97% 3.8 mph WNW6.1 kmh WNW 7.6 mph12.2 kmh 29.92 in1013.2 mb 0.00 in0.0 mm 0.00 in/hr0.0 mm/hr 0.50 in12.7 mm
08:55 AM 53.6°F12.0°C 52.8°F11.6°C 97% 3.1 mph WNW5.0 kmh WNW 6.0 mph9.7 kmh 29.92 in1013.2 mb 0.00 in0.0 mm 0.00 in/hr0.0 mm/hr 0.50 in12.7 mm
09:00 AM 54.7°F12.6°C 53.9°F12.2°C 97% 5.4 mph WNW8.7 kmh WNW 7.6 mph12.2 kmh 29.92 in1013.2 mb 0.01 in0.3 mm 0.01 in/hr0.3 mm/hr 0.51 in13.0 mm
09:05 AM 55.9°F13.3°C 54.8°F12.7°C 96% 3.8 mph WNW6.1 kmh WNW 7.6 mph12.2 kmh 29.92 in1013.2 mb 0.01 in0.3 mm 0.00 in/hr0.0 mm/hr 0.51 in13.0 mm
09:10 AM 55.6°F13.1°C 54.8°F12.7°C 97% 4.5 mph WNW7.2 kmh WNW 8.3 mph13.4 kmh 29.92 in1013.2 mb 0.01 in0.3 mm 0.00 in/hr0.0 mm/hr 0.51 in13.0 mm
09:15 AM 55.6°F13.1°C 54.8°F12.7°C 97% 6.9 mph W11.1 kmh W 10.7 mph17.2 kmh 29.92 in1013.2 mb 0.01 in0.3 mm 0.00 in/hr0.0 mm/hr 0.51 in13.0 mm
09:20 AM 55.6°F13.1°C 54.5°F12.5°C 96% 4.5 mph W7.2 kmh W 10.7 mph17.2 kmh 29.92 in1013.2 mb 0.01 in0.3 mm 0.00 in/hr0.0 mm/hr 0.51 in13.0 mm
09:25 AM 53.8°F12.1°C 52.7°F11.5°C 96% 2.2 mph WNW3.5 kmh WNW 10.7 mph17.2 kmh 29.92 in1013.2 mb 0.01 in0.3 mm 0.00 in/hr0.0 mm/hr 0.51 in13.0 mm
09:30 AM 55.6°F13.1°C 54.2°F12.3°C 95% 3.8 mph NW6.1 kmh NW 10.7 mph17.2 kmh 29.92 in1013.2 mb 0.01 in0.3 mm 0.00 in/hr0.0 mm/hr 0.51 in13.0 mm
09:35 AM 55.2°F12.9°C 54.1°F12.3°C 96% 8.3 mph W13.4 kmh W 11.4 mph18.3 kmh 29.92 in1013.2 mb 0.01 in0.3 mm 0.00 in/hr0.0 mm/hr 0.51 in13.0 mm
09:40 AM 55.4°F13.0°C 54.0°F12.2°C 95% 5.4 mph W8.7 kmh W 11.4 mph18.3 kmh 29.92 in1013.2 mb 0.01 in0.3 mm 0.00 in/hr0.0 mm/hr 0.51 in13.0 mm
09:45 AM 54.9°F12.7°C 53.7°F12.1°C 96% 5.4 mph W8.7 kmh W 12.1 mph19.5 kmh 29.92 in1013.2 mb 0.02 in0.5 mm 0.12 in/hr3.0 mm/hr 0.52 in13.2 mm
09:50 AM 55.4°F13.0°C 54.0°F12.2°C 95% 5.4 mph W8.7 kmh W 12.1 mph19.5 kmh 29.92 in1013.2 mb 0.02 in0.5 mm 0.00 in/hr0.0 mm/hr 0.52 in13.2 mm
09:55 AM 55.0°F12.8°C 53.9°F12.2°C 96% 5.4 mph WNW8.7 kmh WNW 12.1 mph19.5 kmh 29.92 in1013.2 mb 0.02 in0.5 mm 0.00 in/hr0.0 mm/hr 0.52 in13.2 mm
10:00 AM 55.4°F13.0°C 54.0°F12.2°C 95% 3.8 mph W6.1 kmh W 9.8 mph15.8 kmh 29.92 in1013.2 mb 0.01 in0.3 mm 0.00 in/hr0.0 mm/hr 0.52 in13.2 mm
10:05 AM 55.4°F13.0°C 54.0°F12.2°C 95% 5.4 mph W8.7 kmh W 9.2 mph14.8 kmh 29.92 in1013.2 mb 0.01 in0.3 mm 0.00 in/hr0.0 mm/hr 0.52 in13.2 mm
10:10 AM 53.6°F12.0°C 52.5°F11.4°C 96% 6.9 mph WNW11.1 kmh WNW 12.1 mph19.5 kmh 29.92 in1013.2 mb 0.01 in0.3 mm 0.00 in/hr0.0 mm/hr 0.52 in13.2 mm
10:15 AM 53.2°F11.8°C 52.4°F11.3°C 97% 4.5 mph NW7.2 kmh NW 12.1 mph19.5 kmh 29.92 in1013.2 mb 0.01 in0.3 mm 0.00 in/hr0.0 mm/hr 0.52 in13.2 mm
10:20 AM 53.1°F11.7°C 52.0°F11.1°C 96% 3.8 mph NW6.1 kmh NW 13.0 mph20.9 kmh 29.92 in1013.2 mb 0.01 in0.3 mm 0.00 in/hr0.0 mm/hr 0.52 in13.2 mm
10:25 AM 54.9°F12.7°C 53.5°F11.9°C 95% 7.6 mph NW12.2 kmh NW 13.6 mph21.9 kmh 29.92 in1013.2 mb 0.02 in0.5 mm 0.12 in/hr3.0 mm/hr 0.53 in13.5 mm
10:30 AM 52.9°F11.6°C 51.8°F11.0°C 96% 4.5 mph NW7.2 kmh NW 15.2 mph24.5 kmh 29.92 in1013.2 mb 0.02 in0.5 mm 0.00 in/hr0.0 mm/hr 0.53 in13.5 mm
10:35 AM 52.9°F11.6°C 51.8°F11.0°C 96% 2.2 mph NW3.5 kmh NW 15.2 mph24.5 kmh 29.92 in1013.2 mb 0.02 in0.5 mm 0.00 in/hr0.0 mm/hr 0.53 in13.5 mm
10:40 AM 55.0°F12.8°C 53.6°F12.0°C 95% 4.5 mph WNW7.2 kmh WNW 7.6 mph12.2 kmh 29.92 in1013.2 mb 0.02 in0.5 mm 0.00 in/hr0.0 mm/hr 0.53 in13.5 mm
10:45 AM 52.9°F11.6°C 51.8°F11.0°C 96% 3.1 mph NW5.0 kmh NW 9.2 mph14.8 kmh 29.92 in1013.2 mb 0.01 in0.3 mm 0.00 in/hr0.0 mm/hr 0.53 in13.5 mm
10:50 AM 55.0°F12.8°C 53.9°F12.2°C 96% 3.8 mph NW6.1 kmh NW 9.2 mph14.8 kmh 29.92 in1013.2 mb 0.01 in0.3 mm 0.00 in/hr0.0 mm/hr 0.53 in13.5 mm
10:55 AM 54.9°F12.7°C 53.5°F11.9°C 95% 3.1 mph NW5.0 kmh NW 9.8 mph15.8 kmh 29.92 in1013.2 mb 0.01 in0.3 mm 0.00 in/hr0.0 mm/hr 0.53 in13.5 mm
11:00 AM 53.4°F11.9°C 52.3°F11.3°C 96% 4.5 mph WNW7.2 kmh WNW 9.8 mph15.8 kmh 29.92 in1013.2 mb 0.02 in0.5 mm 0.01 in/hr0.3 mm/hr 0.54 in13.7 mm
11:05 AM 54.9°F12.7°C 53.5°F11.9°C 95% 4.5 mph NW7.2 kmh NW 7.6 mph12.2 kmh 29.92 in1013.2 mb 0.02 in0.5 mm 0.00 in/hr0.0 mm/hr 0.54 in13.7 mm
11:10 AM 55.0°F12.8°C 53.6°F12.0°C 95% 6.0 mph WNW9.7 kmh WNW 9.8 mph15.8 kmh 29.92 in1013.2 mb 0.02 in0.5 mm 0.00 in/hr0.0 mm/hr 0.54 in13.7 mm
11:15 AM 55.0°F12.8°C 53.4°F11.9°C 94% 5.4 mph W8.7 kmh W 9.8 mph15.8 kmh 29.92 in1013.2 mb 0.02 in0.5 mm 0.00 in/hr0.0 mm/hr 0.54 in13.7 mm
11:20 AM 54.9°F12.7°C 53.2°F11.8°C 94% 5.4 mph W8.7 kmh W 9.8 mph15.8 kmh 29.92 in1013.2 mb 0.02 in0.5 mm 0.00 in/hr0.0 mm/hr 0.54 in13.7 mm
11:25 AM 53.2°F11.8°C 51.9°F11.1°C 95% 2.2 mph WNW3.5 kmh WNW 7.6 mph12.2 kmh 29.92 in1013.2 mb 0.01 in0.3 mm 0.00 in/hr0.0 mm/hr 0.54 in13.7 mm
11:30 AM 53.1°F11.7°C 51.7°F10.9°C 95% 2.2 mph NNW3.5 kmh NNW 7.6 mph12.2 kmh 29.92 in1013.2 mb 0.01 in0.3 mm 0.00 in/hr0.0 mm/hr 0.54 in13.7 mm
11:35 AM 54.9°F12.7°C 53.2°F11.8°C 94% 2.2 mph NW3.5 kmh NW 7.6 mph12.2 kmh 29.92 in1013.2 mb 0.01 in0.3 mm 0.00 in/hr0.0 mm/hr 0.54 in13.7 mm
11:40 AM 52.9°F11.6°C 51.5°F10.8°C 95% Calm Calm 7.6 mph12.2 kmh 29.92 in1013.2 mb 0.01 in0.3 mm 0.00 in/hr0.0 mm/hr 0.54 in13.7 mm
11:45 AM 55.0°F12.8°C 53.4°F11.9°C 94% 2.2 mph NW3.5 kmh NW 7.6 mph12.2 kmh 29.92 in1013.2 mb 0.02 in0.5 mm 0.12 in/hr3.0 mm/hr 0.56 in14.2 mm
11:50 AM 53.2°F11.8°C 51.9°F11.1°C 95% 2.2 mph WNW3.5 kmh WNW 7.6 mph12.2 kmh 29.92 in1013.2 mb 0.02 in0.5 mm 0.00 in/hr0.0 mm/hr 0.56 in14.2 mm
11:55 AM 54.9°F12.7°C 53.5°F11.9°C 95% 3.8 mph WNW6.1 kmh WNW 7.6 mph12.2 kmh 29.92 in1013.2 mb 0.02 in0.5 mm 0.00 in/hr0.0 mm/hr 0.56 in14.2 mm
12:00 PM 53.4°F11.9°C 52.0°F11.1°C 95% 1.6 mph NW2.6 kmh NW 6.9 mph11.1 kmh 29.92 in1013.2 mb 0.01 in0.3 mm 0.00 in/hr0.0 mm/hr 0.56 in14.2 mm
12:05 PM 53.2°F11.8°C 51.9°F11.1°C 95% 1.6 mph NW2.6 kmh NW 6.9 mph11.1 kmh 29.92 in1013.2 mb 0.01 in0.3 mm 0.00 in/hr0.0 mm/hr 0.56 in14.2 mm
12:10 PM 54.7°F12.6°C 53.3°F11.8°C 95% 6.0 mph NW9.7 kmh NW 8.3 mph13.4 kmh 29.92 in1013.2 mb 0.01 in0.3 mm 0.00 in/hr0.0 mm/hr 0.56 in14.2 mm
12:15 PM 55.2°F12.9°C 53.8°F12.1°C 95% 0.7 mph NW1.1 kmh NW 8.3 mph13.4 kmh 29.92 in1013.2 mb 0.01 in0.3 mm 0.00 in/hr0.0 mm/hr 0.56 in14.2 mm
12:20 PM 55.4°F13.0°C 53.7°F12.1°C 94% 6.0 mph NW9.7 kmh NW 9.8 mph15.8 kmh 29.92 in1013.2 mb 0.01 in0.3 mm 0.00 in/hr0.0 mm/hr 0.56 in14.2 mm
12:25 PM 55.8°F13.2°C 53.8°F12.1°C 93% 4.5 mph WNW7.2 kmh WNW 10.7 mph17.2 kmh 29.92 in1013.2 mb 0.01 in0.3 mm 0.00 in/hr0.0 mm/hr 0.56 in14.2 mm
12:30 PM 55.9°F13.3°C 54.0°F12.2°C 93% 4.5 mph W7.2 kmh W 10.7 mph17.2 kmh 29.92 in1013.2 mb 0.01 in0.3 mm 0.00 in/hr0.0 mm/hr 0.56 in14.2 mm
12:35 PM 55.6°F13.1°C 53.6°F12.0°C 93% 4.5 mph W7.2 kmh W 9.8 mph15.8 kmh 29.92 in1013.2 mb 0.01 in0.3 mm 0.00 in/hr0.0 mm/hr 0.56 in14.2 mm
12:40 PM 55.8°F13.2°C 53.5°F11.9°C 92% 6.9 mph WNW11.1 kmh WNW 12.1 mph19.5 kmh 29.92 in1013.2 mb 0.01 in0.3 mm 0.00 in/hr0.0 mm/hr 0.56 in14.2 mm
12:45 PM 53.6°F12.0°C 50.4°F10.2°C 89% 5.4 mph WNW8.7 kmh WNW 12.1 mph19.5 kmh 29.92 in1013.2 mb 0.00 in0.0 mm 0.00 in/hr0.0 mm/hr 0.56 in14.2 mm
12:50 PM 55.4°F13.0°C 51.6°F10.9°C 87% 4.5 mph W7.2 kmh W 9.8 mph15.8 kmh 29.92 in1013.2 mb 0.00 in0.0 mm 0.00 in/hr0.0 mm/hr 0.56 in14.2 mm
12:55 PM 53.4°F11.9°C 50.3°F10.2°C 89% 2.2 mph W3.5 kmh W 9.2 mph14.8 kmh 29.92 in1013.2 mb 0.00 in0.0 mm 0.00 in/hr0.0 mm/hr 0.56 in14.2 mm
01:00 PM 53.4°F11.9°C 50.3°F10.2°C 89% 2.2 mph WNW3.5 kmh WNW 7.6 mph12.2 kmh 29.92 in1013.2 mb 0.00 in0.0 mm 0.00 in/hr0.0 mm/hr 0.56 in14.2 mm
01:05 PM 55.2°F12.9°C 51.7°F10.9°C 88% 3.1 mph W5.0 kmh W 9.2 mph14.8 kmh 29.92 in1013.2 mb 0.00 in0.0 mm 0.00 in/hr0.0 mm/hr 0.56 in14.2 mm
01:10 PM 55.2°F12.9°C 51.7°F10.9°C 88% 2.2 mph WNW3.5 kmh WNW 9.2 mph14.8 kmh 29.92 in1013.2 mb 0.00 in0.0 mm 0.00 in/hr0.0 mm/hr 0.56 in14.2 mm
01:15 PM 55.4°F13.0°C 51.9°F11.1°C 88% 3.1 mph WNW5.0 kmh WNW 6.9 mph11.1 kmh 29.92 in1013.2 mb 0.00 in0.0 mm 0.00 in/hr0.0 mm/hr 0.56 in14.2 mm
01:20 PM 55.6°F13.1°C 52.1°F11.2°C 88% 5.4 mph W8.7 kmh W 9.8 mph15.8 kmh 29.92 in1013.2 mb 0.00 in0.0 mm 0.00 in/hr0.0 mm/hr 0.56 in14.2 mm
01:25 PM 55.6°F13.1°C 51.8°F11.0°C 87% 3.1 mph W5.0 kmh W 9.8 mph15.8 kmh 29.92 in1013.2 mb 0.00 in0.0 mm 0.00 in/hr0.0 mm/hr 0.56 in14.2 mm
01:30 PM 54.0°F12.2°C 50.5°F10.3°C 88% 3.1 mph WNW5.0 kmh WNW 9.8 mph15.8 kmh 29.92 in1013.2 mb 0.00 in0.0 mm 0.00 in/hr0.0 mm/hr 0.56 in14.2 mm
01:35 PM 55.8°F13.2°C 52.0°F11.1°C 87% 3.1 mph NW5.0 kmh NW 6.9 mph11.1 kmh 29.92 in1013.2 mb 0.00 in0.0 mm 0.00 in/hr0.0 mm/hr 0.56 in14.2 mm
01:40 PM 55.9°F13.3°C 52.4°F11.3°C 88% 3.8 mph NNW6.1 kmh NNW 6.9 mph11.1 kmh 29.92 in1013.2 mb 0.00 in0.0 mm 0.00 in/hr0.0 mm/hr 0.56 in14.2 mm
01:45 PM 55.8°F13.2°C 52.0°F11.1°C 87% 3.8 mph NW6.1 kmh NW 8.3 mph13.4 kmh 29.92 in1013.2 mb 0.00 in0.0 mm 0.00 in/hr0.0 mm/hr 0.56 in14.2 mm
01:50 PM 56.1°F13.4°C 52.0°F11.1°C 86% 4.5 mph WNW7.2 kmh WNW 9.8 mph15.8 kmh 29.92 in1013.2 mb 0.00 in0.0 mm 0.00 in/hr0.0 mm/hr 0.56 in14.2 mm
01:55 PM 56.3°F13.5°C 51.9°F11.1°C 85% 4.5 mph WNW7.2 kmh WNW 9.8 mph15.8 kmh 29.92 in1013.2 mb 0.00 in0.0 mm 0.00 in/hr0.0 mm/hr 0.56 in14.2 mm
02:00 PM 54.5°F12.5°C 49.8°F9.9°C 84% 3.1 mph WNW5.0 kmh WNW 9.8 mph15.8 kmh 29.92 in1013.2 mb 0.00 in0.0 mm 0.00 in/hr0.0 mm/hr 0.56 in14.2 mm
02:05 PM 56.5°F13.6°C 51.4°F10.8°C 83% 5.4 mph WNW8.7 kmh WNW 9.2 mph14.8 kmh 29.92 in1013.2 mb 0.00 in0.0 mm 0.00 in/hr0.0 mm/hr 0.56 in14.2 mm
02:10 PM 56.5°F13.6°C 51.4°F10.8°C 83% 2.2 mph NW3.5 kmh NW 6.9 mph11.1 kmh 29.92 in1013.2 mb 0.00 in0.0 mm 0.00 in/hr0.0 mm/hr 0.56 in14.2 mm
02:15 PM 55.6°F13.1°C 50.5°F10.3°C 83% 6.0 mph NW9.7 kmh NW 9.2 mph14.8 kmh 29.92 in1013.2 mb 0.00 in0.0 mm 0.00 in/hr0.0 mm/hr 0.56 in14.2 mm
02:20 PM 57.6°F14.2°C 52.1°F11.2°C 82% 1.6 mph W2.6 kmh W 9.2 mph14.8 kmh 29.92 in1013.2 mb 0.00 in0.0 mm 0.00 in/hr0.0 mm/hr 0.56 in14.2 mm
02:25 PM 57.4°F14.1°C 51.9°F11.1°C 82% 3.1 mph W5.0 kmh W 7.6 mph12.2 kmh 29.92 in1013.2 mb 0.00 in0.0 mm 0.00 in/hr0.0 mm/hr 0.56 in14.2 mm
02:30 PM 57.6°F14.2°C 52.1°F11.2°C 82% 3.8 mph W6.1 kmh W 7.6 mph12.2 kmh 29.92 in1013.2 mb 0.00 in0.0 mm 0.00 in/hr0.0 mm/hr 0.56 in14.2 mm
02:35 PM 58.1°F14.5°C 52.3°F11.3°C 81% 3.8 mph WNW6.1 kmh WNW 7.6 mph12.2 kmh 29.92 in1013.2 mb 0.00 in0.0 mm 0.00 in/hr0.0 mm/hr 0.56 in14.2 mm
02:40 PM 58.5°F14.7°C 52.7°F11.5°C 81% 3.1 mph W5.0 kmh W 7.6 mph12.2 kmh 29.92 in1013.2 mb 0.00 in0.0 mm 0.00 in/hr0.0 mm/hr 0.56 in14.2 mm
02:45 PM 59.0°F15.0°C 51.8°F11.0°C 77% 5.4 mph WSW8.7 kmh WSW 10.7 mph17.2 kmh 29.92 in1013.2 mb 0.00 in0.0 mm 0.00 in/hr0.0 mm/hr 0.56 in14.2 mm
02:50 PM 59.2°F15.1°C 51.6°F10.9°C 76% 3.8 mph WSW6.1 kmh WSW 10.7 mph17.2 kmh 29.92 in1013.2 mb 0.00 in0.0 mm 0.00 in/hr0.0 mm/hr 0.56 in14.2 mm
02:55 PM 59.2°F15.1°C 51.3°F10.7°C 75% 3.8 mph WNW6.1 kmh WNW 7.6 mph12.2 kmh 29.92 in1013.2 mb 0.00 in0.0 mm 0.00 in/hr0.0 mm/hr 0.56 in14.2 mm
03:00 PM 56.7°F13.7°C 48.8°F9.3°C 75% 1.6 mph NW2.6 kmh NW 6.9 mph11.1 kmh 29.92 in1013.2 mb 0.00 in0.0 mm 0.00 in/hr0.0 mm/hr 0.56 in14.2 mm
03:05 PM 56.7°F13.7°C 48.8°F9.3°C 75% 1.6 mph NW2.6 kmh NW 6.0 mph9.7 kmh 29.92 in1013.2 mb 0.00 in0.0 mm 0.00 in/hr0.0 mm/hr 0.56 in14.2 mm
03:10 PM 57.2°F14.0°C 49.0°F9.4°C 74% 3.8 mph NW6.1 kmh NW 5.4 mph8.7 kmh 29.92 in1013.2 mb 0.00 in0.0 mm 0.00 in/hr0.0 mm/hr 0.56 in14.2 mm
03:15 PM 58.6°F14.8°C 50.8°F10.4°C 75% 3.1 mph NW5.0 kmh NW 5.4 mph8.7 kmh 29.92 in1013.2 mb 0.00 in0.0 mm 0.00 in/hr0.0 mm/hr 0.56 in14.2 mm
03:20 PM 60.6°F15.9°C 51.9°F11.1°C 73% 5.4 mph WNW8.7 kmh WNW 6.9 mph11.1 kmh 29.92 in1013.2 mb 0.00 in0.0 mm 0.00 in/hr0.0 mm/hr 0.56 in14.2 mm
03:25 PM 59.2°F15.1°C 50.2°F10.1°C 72% 1.6 mph WNW2.6 kmh WNW 6.9 mph11.1 kmh 29.92 in1013.2 mb 0.00 in0.0 mm 0.00 in/hr0.0 mm/hr 0.56 in14.2 mm
03:30 PM 59.0°F15.0°C 49.2°F9.6°C 70% 6.0 mph NW9.7 kmh NW 11.4 mph18.3 kmh 29.92 in1013.2 mb 0.00 in0.0 mm 0.00 in/hr0.0 mm/hr 0.56 in14.2 mm
03:35 PM 61.2°F16.2°C 50.9°F10.5°C 69% 2.2 mph WNW3.5 kmh WNW 12.1 mph19.5 kmh 29.92 in1013.2 mb 0.00 in0.0 mm 0.00 in/hr0.0 mm/hr 0.56 in14.2 mm
03:40 PM 61.0°F16.1°C 50.4°F10.2°C 68% 3.8 mph WNW6.1 kmh WNW 12.1 mph19.5 kmh 29.92 in1013.2 mb 0.00 in0.0 mm 0.00 in/hr0.0 mm/hr 0.56 in14.2 mm
03:45 PM 61.3°F16.3°C 50.3°F10.2°C 67% 4.5 mph NW7.2 kmh NW 7.6 mph12.2 kmh 29.92 in1013.2 mb 0.00 in0.0 mm 0.00 in/hr0.0 mm/hr 0.56 in14.2 mm
03:50 PM 61.5°F16.4°C 50.5°F10.3°C 67% 6.0 mph WNW9.7 kmh WNW 11.4 mph18.3 kmh 29.92 in1013.2 mb 0.00 in0.0 mm 0.00 in/hr0.0 mm/hr 0.56 in14.2 mm
03:55 PM 59.4°F15.2°C 48.4°F9.1°C 67% 4.5 mph WNW7.2 kmh WNW 11.4 mph18.3 kmh 29.92 in1013.2 mb 0.00 in0.0 mm 0.00 in/hr0.0 mm/hr 0.56 in14.2 mm
04:00 PM 61.3°F16.3°C 50.3°F10.2°C 67% 2.2 mph NW3.5 kmh NW 8.3 mph13.4 kmh 29.92 in1013.2 mb 0.00 in0.0 mm 0.00 in/hr0.0 mm/hr 0.56 in14.2 mm
04:05 PM 61.7°F16.5°C 51.0°F10.6°C 68% 6.9 mph WNW11.1 kmh WNW 7.6 mph12.2 kmh 29.92 in1013.2 mb 0.00 in0.0 mm 0.00 in/hr0.0 mm/hr 0.56 in14.2 mm
04:10 PM 59.9°F15.5°C 48.9°F9.4°C 67% 4.5 mph WNW7.2 kmh WNW 7.6 mph12.2 kmh 29.92 in1013.2 mb 0.00 in0.0 mm 0.00 in/hr0.0 mm/hr 0.56 in14.2 mm
04:15 PM 59.7°F15.4°C 48.4°F9.1°C 66% Calm Calm 7.6 mph12.2 kmh 29.92 in1013.2 mb 0.00 in0.0 mm 0.00 in/hr0.0 mm/hr 0.56 in14.2 mm
04:41 PM 60.3°F15.7°C 49.3°F9.6°C 67% 1.6 mph NW2.6 kmh NW 4.5 mph7.2 kmh 29.92 in1013.2 mb 0.00 in0.0 mm 0.00 in/hr0.0 mm/hr 0.56 in14.2 mm
04:46 PM 59.9°F15.5°C 48.5°F9.2°C 66% 0.7 mph WNW1.1 kmh WNW 3.1 mph5.0 kmh 29.92 in1013.2 mb 0.00 in0.0 mm 0.00 in/hr0.0 mm/hr 0.56 in14.2 mm
04:51 PM 59.5°F15.3°C 48.6°F9.2°C 67% 0.7 mph NW1.1 kmh NW 3.1 mph5.0 kmh 29.92 in1013.2 mb 0.00 in0.0 mm 0.00 in/hr0.0 mm/hr 0.56 in14.2 mm
04:52 PM 61.3°F16.3°C 49.9°F9.9°C 66% 2.2 mph WNW3.5 kmh WNW 6.9 mph11.1 kmh 29.92 in1013.2 mb 0.00 in0.0 mm 0.00 in/hr0.0 mm/hr 0.56 in14.2 mm
04:53 PM 60.3°F15.7°C 49.3°F9.6°C 67% 1.6 mph NW2.6 kmh NW 5.4 mph8.7 kmh 29.92 in1013.2 mb 0.00 in0.0 mm 0.00 in/hr0.0 mm/hr 0.56 in14.2 mm
04:55 PM 61.0°F16.1°C 50.4°F10.2°C 68% Calm Calm 2.2 mph3.5 kmh 29.92 in1013.2 mb 0.00 in0.0 mm 0.00 in/hr0.0 mm/hr 0.56 in14.2 mm
05:00 PM 58.5°F14.7°C 48.7°F9.3°C 70% Calm Calm 3.1 mph5.0 kmh 29.92 in1013.2 mb 0.00 in0.0 mm 0.00 in/hr0.0 mm/hr 0.56 in14.2 mm
05:05 PM 60.1°F15.6°C 49.9°F9.9°C 69% 0.7 mph W1.1 kmh W 3.1 mph5.0 kmh 29.92 in1013.2 mb 0.00 in0.0 mm 0.00 in/hr0.0 mm/hr 0.56 in14.2 mm
05:10 PM 57.4°F14.1°C 48.1°F8.9°C 71% Calm Calm 3.8 mph6.1 kmh 29.92 in1013.2 mb 0.00 in0.0 mm 0.00 in/hr0.0 mm/hr 0.56 in14.2 mm
05:15 PM 57.2°F14.0°C 47.9°F8.8°C 71% Calm Calm 3.8 mph6.1 kmh 29.92 in1013.2 mb 0.00 in0.0 mm 0.00 in/hr0.0 mm/hr 0.56 in14.2 mm
05:20 PM 59.0°F15.0°C 49.6°F9.8°C 71% Calm Calm -- 29.92 in1013.2 mb 0.00 in0.0 mm 0.00 in/hr0.0 mm/hr 0.56 in14.2 mm
05:25 PM 58.6°F14.8°C 50.0°F10.0°C 73% Calm Calm -- 29.92 in1013.2 mb 0.00 in0.0 mm 0.00 in/hr0.0 mm/hr 0.56 in14.2 mm
05:30 PM 57.9°F14.4°C 49.7°F9.8°C 74% Calm Calm -- 29.92 in1013.2 mb 0.00 in0.0 mm 0.00 in/hr0.0 mm/hr 0.56 in14.2 mm
05:35 PM 57.4°F14.1°C 49.5°F9.7°C 75% Calm Calm -- 29.92 in1013.2 mb 0.00 in0.0 mm 0.00 in/hr0.0 mm/hr 0.56 in14.2 mm
05:40 PM 56.8°F13.8°C 49.7°F9.8°C 77% Calm Calm -- 29.92 in1013.2 mb 0.00 in0.0 mm 0.00 in/hr0.0 mm/hr 0.56 in14.2 mm
05:45 PM 56.3°F13.5°C 49.2°F9.6°C 77% Calm Calm -- 29.92 in1013.2 mb 0.00 in0.0 mm 0.00 in/hr0.0 mm/hr 0.56 in14.2 mm
05:50 PM 55.9°F13.3°C 48.8°F9.3°C 77% Calm Calm -- 29.92 in1013.2 mb 0.00 in0.0 mm 0.00 in/hr0.0 mm/hr 0.56 in14.2 mm
05:55 PM 55.4°F13.0°C 48.7°F9.3°C 78% Calm Calm -- 29.92 in1013.2 mb 0.00 in0.0 mm 0.00 in/hr0.0 mm/hr 0.56 in14.2 mm
06:00 PM 55.0°F12.8°C 48.7°F9.3°C 79% Calm Calm -- 29.92 in1013.2 mb 0.00 in0.0 mm 0.00 in/hr0.0 mm/hr 0.56 in14.2 mm
06:05 PM 54.7°F12.6°C 48.3°F9.1°C 79% Calm Calm -- 29.92 in1013.2 mb 0.00 in0.0 mm 0.00 in/hr0.0 mm/hr 0.56 in14.2 mm
06:10 PM 54.1°F12.3°C 48.1°F8.9°C 80% Calm Calm -- 29.92 in1013.2 mb 0.00 in0.0 mm 0.00 in/hr0.0 mm/hr 0.56 in14.2 mm
06:15 PM 54.0°F12.2°C 47.9°F8.8°C 80% Calm Calm -- 29.92 in1013.2 mb 0.00 in0.0 mm 0.00 in/hr0.0 mm/hr 0.56 in14.2 mm
06:20 PM 53.6°F12.0°C 47.9°F8.8°C 81% Calm Calm -- 29.92 in1013.2 mb 0.00 in0.0 mm 0.00 in/hr0.0 mm/hr 0.56 in14.2 mm
06:25 PM 53.2°F11.8°C 48.2°F9.0°C 83% Calm Calm -- 29.92 in1013.2 mb 0.00 in0.0 mm 0.00 in/hr0.0 mm/hr 0.56 in14.2 mm
06:30 PM 53.1°F11.7°C 48.4°F9.1°C 84% Calm Calm -- 29.92 in1013.2 mb 0.00 in0.0 mm 0.00 in/hr0.0 mm/hr 0.56 in14.2 mm
06:35 PM 52.9°F11.6°C 48.8°F9.3°C 86% Calm Calm -- 29.92 in1013.2 mb 0.00 in0.0 mm 0.00 in/hr0.0 mm/hr 0.56 in14.2 mm
06:40 PM 52.7°F11.5°C 48.9°F9.4°C 87% Calm Calm -- 29.92 in1013.2 mb 0.00 in0.0 mm 0.00 in/hr0.0 mm/hr 0.56 in14.2 mm
06:45 PM 52.5°F11.4°C 48.8°F9.3°C 87% Calm Calm -- 29.92 in1013.2 mb 0.00 in0.0 mm 0.00 in/hr0.0 mm/hr 0.56 in14.2 mm
06:50 PM 52.5°F11.4°C 49.1°F9.5°C 88% Calm Calm -- 29.92 in1013.2 mb 0.00 in0.0 mm 0.00 in/hr0.0 mm/hr 0.56 in14.2 mm
06:55 PM 52.3°F11.3°C 49.2°F9.6°C 89% Calm Calm 2.2 mph3.5 kmh 29.92 in1013.2 mb 0.00 in0.0 mm 0.00 in/hr0.0 mm/hr 0.56 in14.2 mm
07:00 PM 52.2°F11.2°C 49.3°F9.6°C 90% Calm Calm 2.2 mph3.5 kmh 29.92 in1013.2 mb 0.00 in0.0 mm 0.00 in/hr0.0 mm/hr 0.56 in14.2 mm
07:05 PM 52.0°F11.1°C 49.1°F9.5°C 90% Calm Calm -- 29.92 in1013.2 mb 0.00 in0.0 mm 0.00 in/hr0.0 mm/hr 0.56 in14.2 mm
07:10 PM 51.6°F10.9°C 49.1°F9.5°C 91% Calm Calm -- 29.92 in1013.2 mb 0.00 in0.0 mm 0.00 in/hr0.0 mm/hr 0.56 in14.2 mm
07:15 PM 51.4°F10.8°C 48.9°F9.4°C 91% Calm Calm -- 29.92 in1013.2 mb 0.00 in0.0 mm 0.00 in/hr0.0 mm/hr 0.56 in14.2 mm
07:20 PM 51.4°F10.8°C 48.9°F9.4°C 91% Calm Calm -- 29.92 in1013.2 mb 0.00 in0.0 mm 0.00 in/hr0.0 mm/hr 0.56 in14.2 mm
07:25 PM 51.3°F10.7°C 49.0°F9.4°C 92% Calm Calm -- 29.92 in1013.2 mb 0.00 in0.0 mm 0.00 in/hr0.0 mm/hr 0.56 in14.2 mm
07:30 PM 51.3°F10.7°C 49.0°F9.4°C 92% Calm Calm -- 29.92 in1013.2 mb 0.00 in0.0 mm 0.00 in/hr0.0 mm/hr 0.56 in14.2 mm
07:35 PM 51.1°F10.6°C 48.8°F9.3°C 92% Calm Calm -- 29.92 in1013.2 mb 0.00 in0.0 mm 0.00 in/hr0.0 mm/hr 0.56 in14.2 mm
07:40 PM 50.9°F10.5°C 48.7°F9.3°C 92% Calm Calm -- 29.92 in1013.2 mb 0.00 in0.0 mm 0.00 in/hr0.0 mm/hr 0.56 in14.2 mm
07:45 PM 50.9°F10.5°C 48.7°F9.3°C 92% Calm Calm -- 29.92 in1013.2 mb 0.00 in0.0 mm 0.00 in/hr0.0 mm/hr 0.56 in14.2 mm
07:50 PM 50.9°F10.5°C 49.0°F9.4°C 93% Calm Calm -- 29.92 in1013.2 mb 0.00 in0.0 mm 0.00 in/hr0.0 mm/hr 0.56 in14.2 mm
07:55 PM 50.5°F10.3°C 48.6°F9.2°C 93% Calm Calm -- 29.92 in1013.2 mb 0.00 in0.0 mm 0.00 in/hr0.0 mm/hr 0.56 in14.2 mm
08:00 PM 50.4°F10.2°C 48.4°F9.1°C 93% Calm Calm -- 29.92 in1013.2 mb 0.00 in0.0 mm 0.00 in/hr0.0 mm/hr 0.56 in14.2 mm
08:05 PM 50.4°F10.2°C 48.4°F9.1°C 93% Calm Calm -- 29.92 in1013.2 mb 0.00 in0.0 mm 0.00 in/hr0.0 mm/hr 0.56 in14.2 mm
08:10 PM 50.4°F10.2°C 48.4°F9.1°C 93% Calm Calm -- 29.92 in1013.2 mb 0.00 in0.0 mm 0.00 in/hr0.0 mm/hr 0.56 in14.2 mm
08:15 PM 50.2°F10.1°C 48.2°F9.0°C 93% Calm Calm -- 29.92 in1013.2 mb 0.00 in0.0 mm 0.00 in/hr0.0 mm/hr 0.56 in14.2 mm
08:20 PM 50.0°F10.0°C 48.1°F8.9°C 93% Calm Calm -- 29.92 in1013.2 mb 0.00 in0.0 mm 0.00 in/hr0.0 mm/hr 0.56 in14.2 mm
08:25 PM 50.0°F10.0°C 48.1°F8.9°C 93% Calm Calm -- 29.92 in1013.2 mb 0.00 in0.0 mm 0.00 in/hr0.0 mm/hr 0.56 in14.2 mm
08:30 PM 49.8°F9.9°C 48.2°F9.0°C 94% Calm Calm -- 29.92 in1013.2 mb 0.00 in0.0 mm 0.00 in/hr0.0 mm/hr 0.56 in14.2 mm
08:35 PM 49.6°F9.8°C 48.0°F8.9°C 94% Calm Calm -- 29.92 in1013.2 mb 0.00 in0.0 mm 0.00 in/hr0.0 mm/hr 0.56 in14.2 mm
08:40 PM 49.5°F9.7°C 47.8°F8.8°C 94% Calm Calm -- 29.92 in1013.2 mb 0.00 in0.0 mm 0.00 in/hr0.0 mm/hr 0.56 in14.2 mm
08:45 PM 49.5°F9.7°C 47.8°F8.8°C 94% Calm Calm -- 29.92 in1013.2 mb 0.00 in0.0 mm 0.00 in/hr0.0 mm/hr 0.56 in14.2 mm
08:50 PM 49.5°F9.7°C 48.1°F8.9°C 95% Calm Calm -- 29.92 in1013.2 mb 0.00 in0.0 mm 0.00 in/hr0.0 mm/hr 0.56 in14.2 mm
08:55 PM 49.5°F9.7°C 48.1°F8.9°C 95% Calm Calm -- 29.92 in1013.2 mb 0.00 in0.0 mm 0.00 in/hr0.0 mm/hr 0.56 in14.2 mm
09:00 PM 49.3°F9.6°C 47.9°F8.8°C 95% Calm Calm -- 29.92 in1013.2 mb 0.00 in0.0 mm 0.00 in/hr0.0 mm/hr 0.56 in14.2 mm
09:05 PM 49.3°F9.6°C 47.9°F8.8°C 95% Calm Calm -- 29.92 in1013.2 mb 0.00 in0.0 mm 0.00 in/hr0.0 mm/hr 0.56 in14.2 mm
09:10 PM 49.1°F9.5°C 47.7°F8.7°C 95% Calm Calm -- 29.92 in1013.2 mb 0.00 in0.0 mm 0.00 in/hr0.0 mm/hr 0.56 in14.2 mm
09:15 PM 48.9°F9.4°C 47.6°F8.7°C 95% Calm Calm -- 29.92 in1013.2 mb 0.00 in0.0 mm 0.00 in/hr0.0 mm/hr 0.56 in14.2 mm
09:20 PM 48.6°F9.2°C 47.2°F8.4°C 95% Calm Calm -- 29.92 in1013.2 mb 0.00 in0.0 mm 0.00 in/hr0.0 mm/hr 0.56 in14.2 mm
09:25 PM 48.4°F9.1°C 47.0°F8.3°C 95% Calm Calm -- 29.92 in1013.2 mb 0.00 in0.0 mm 0.00 in/hr0.0 mm/hr 0.56 in14.2 mm
09:30 PM 48.4°F9.1°C 47.0°F8.3°C 95% Calm Calm -- 29.92 in1013.2 mb 0.00 in0.0 mm 0.00 in/hr0.0 mm/hr 0.56 in14.2 mm
09:35 PM 48.2°F9.0°C 46.8°F8.2°C 95% Calm Calm -- 29.92 in1013.2 mb 0.00 in0.0 mm 0.00 in/hr0.0 mm/hr 0.56 in14.2 mm
09:40 PM 48.2°F9.0°C 46.8°F8.2°C 95% Calm Calm -- 29.92 in1013.2 mb 0.00 in0.0 mm 0.00 in/hr0.0 mm/hr 0.56 in14.2 mm
09:45 PM 48.0°F8.9°C 46.9°F8.3°C 96% Calm Calm -- 29.92 in1013.2 mb 0.00 in0.0 mm 0.00 in/hr0.0 mm/hr 0.56 in14.2 mm
09:50 PM 48.0°F8.9°C 46.9°F8.3°C 96% Calm Calm -- 29.92 in1013.2 mb 0.00 in0.0 mm 0.00 in/hr0.0 mm/hr 0.56 in14.2 mm
09:55 PM 48.2°F9.0°C 46.8°F8.2°C 95% Calm Calm -- 29.92 in1013.2 mb 0.00 in0.0 mm 0.00 in/hr0.0 mm/hr 0.56 in14.2 mm
10:00 PM 48.0°F8.9°C 46.9°F8.3°C 96% Calm Calm -- 29.92 in1013.2 mb 0.00 in0.0 mm 0.00 in/hr0.0 mm/hr 0.56 in14.2 mm
10:05 PM 47.8°F8.8°C 46.8°F8.2°C 96% Calm Calm -- 29.92 in1013.2 mb 0.00 in0.0 mm 0.00 in/hr0.0 mm/hr 0.56 in14.2 mm
10:10 PM 47.7°F8.7°C 46.6°F8.1°C 96% Calm Calm -- 29.92 in1013.2 mb 0.00 in0.0 mm 0.00 in/hr0.0 mm/hr 0.56 in14.2 mm
10:15 PM 47.5°F8.6°C 46.4°F8.0°C 96% Calm Calm -- 29.92 in1013.2 mb 0.00 in0.0 mm 0.00 in/hr0.0 mm/hr 0.56 in14.2 mm
10:20 PM 47.3°F8.5°C 46.2°F7.9°C 96% Calm Calm -- 29.92 in1013.2 mb 0.00 in0.0 mm 0.00 in/hr0.0 mm/hr 0.56 in14.2 mm
10:25 PM 47.3°F8.5°C 46.2°F7.9°C 96% Calm Calm -- 29.92 in1013.2 mb 0.00 in0.0 mm 0.00 in/hr0.0 mm/hr 0.56 in14.2 mm
10:30 PM 47.3°F8.5°C 46.2°F7.9°C 96% Calm Calm -- 29.92 in1013.2 mb 0.00 in0.0 mm 0.00 in/hr0.0 mm/hr 0.56 in14.2 mm
10:35 PM 47.3°F8.5°C 46.2°F7.9°C 96% Calm Calm -- 29.92 in1013.2 mb 0.00 in0.0 mm 0.00 in/hr0.0 mm/hr 0.56 in14.2 mm
10:40 PM 47.1°F8.4°C 46.0°F7.8°C 96% Calm Calm -- 29.92 in1013.2 mb 0.00 in0.0 mm 0.00 in/hr0.0 mm/hr 0.56 in14.2 mm
10:45 PM 47.1°F8.4°C 46.0°F7.8°C 96% Calm Calm -- 29.92 in1013.2 mb 0.00 in0.0 mm 0.00 in/hr0.0 mm/hr 0.56 in14.2 mm
10:50 PM 47.1°F8.4°C 46.0°F7.8°C 96% Calm Calm -- 29.92 in1013.2 mb 0.00 in0.0 mm 0.00 in/hr0.0 mm/hr 0.56 in14.2 mm
10:55 PM 47.1°F8.4°C 46.0°F7.8°C 96% Calm Calm -- 29.92 in1013.2 mb 0.00 in0.0 mm 0.00 in/hr0.0 mm/hr 0.56 in14.2 mm
11:00 PM 46.9°F8.3°C 45.9°F7.7°C 96% Calm Calm -- 29.92 in1013.2 mb 0.00 in0.0 mm 0.00 in/hr0.0 mm/hr 0.56 in14.2 mm
11:05 PM 46.9°F8.3°C 45.9°F7.7°C 96% Calm Calm -- 29.92 in1013.2 mb 0.00 in0.0 mm 0.00 in/hr0.0 mm/hr 0.56 in14.2 mm
11:10 PM 46.8°F8.2°C 45.7°F7.6°C 96% Calm Calm -- 29.92 in1013.2 mb 0.00 in0.0 mm 0.00 in/hr0.0 mm/hr 0.56 in14.2 mm
11:15 PM 46.8°F8.2°C 46.0°F7.8°C 97% Calm Calm -- 29.92 in1013.2 mb 0.00 in0.0 mm 0.00 in/hr0.0 mm/hr 0.56 in14.2 mm
11:20 PM 46.8°F8.2°C 46.0°F7.8°C 97% Calm Calm -- 29.92 in1013.2 mb 0.00 in0.0 mm 0.00 in/hr0.0 mm/hr 0.56 in14.2 mm
11:25 PM 46.6°F8.1°C 45.8°F7.7°C 97% Calm Calm -- 29.92 in1013.2 mb 0.00 in0.0 mm 0.00 in/hr0.0 mm/hr 0.56 in14.2 mm
11:30 PM 46.6°F8.1°C 45.8°F7.7°C 97% Calm Calm -- 29.92 in1013.2 mb 0.00 in0.0 mm 0.00 in/hr0.0 mm/hr 0.56 in14.2 mm
11:35 PM 46.8°F8.2°C 46.0°F7.8°C 97% Calm Calm -- 29.92 in1013.2 mb 0.00 in0.0 mm 0.00 in/hr0.0 mm/hr 0.56 in14.2 mm
11:40 PM 46.6°F8.1°C 45.8°F7.7°C 97% Calm Calm -- 29.92 in1013.2 mb 0.00 in0.0 mm 0.00 in/hr0.0 mm/hr 0.56 in14.2 mm
11:45 PM 46.6°F8.1°C 45.8°F7.7°C 97% Calm Calm -- 29.92 in1013.2 mb 0.00 in0.0 mm 0.00 in/hr0.0 mm/hr 0.56 in14.2 mm
11:50 PM 46.4°F8.0°C 45.6°F7.6°C 97% Calm Calm -- 29.92 in1013.2 mb 0.00 in0.0 mm 0.00 in/hr0.0 mm/hr 0.56 in14.2 mm
11:55 PM 46.4°F8.0°C 45.6°F7.6°C 97% Calm Calm -- 29.92 in1013.2 mb 0.00 in0.0 mm 0.00 in/hr0.0 mm/hr 0.56 in14.2 mm